Miles City, MT (59301)

4:36 PM MDT on September 01, 2015 (GMT -0600)
Wiley | | Change Station
CLOSE
Current Station
Airport
Location: Miles City,
Elevation: 2628 ft
Nearby Weather Stations

Elev 2628 ft 46.43 °N, 105.88 °W | Updated 43 minutes ago

Clear
Clear
92 °F
Feels Like 92 °F
N
8
Wind Variable Wind from West

Today
High -- | Low -- °F
--% Chance of Precip.
Yesterday
High -- | Low -- °F
Precip. -- in
6:23 AM 7:42 PM
Waning Gibbous, 86% visible
Pressure 29.71 in
Visibility 10.0 miles
Clouds Clear
Dew Point 36 °F
Humidity 14%
Rainfall 0.00 in
Snow Depth Not available.
UV 5 out of 12
Pollen 9.60 out of 12
Air Quality Not available.
Flu Activity Not available.
METAR KMLS 012153Z AUTO 26007KT 10SM CLR 33/02 A2977 RMK AO2 SLP059 T03330022
Pressure 29.71 in
Visibility 10.0 miles
Clouds Clear
Dew Point 36 °F
Humidity 14%
Rainfall 0.00 in
Snow Depth Not available.
UV 5 out of 12
Pollen 9.60 out of 12
Air Quality Not available.
Flu Activity Not available.
METAR KMLS 012153Z AUTO 26007KT 10SM CLR 33/02 A2977 RMK AO2 SLP059 T03330022

10-Day Weather Forecast

×

Almanac

Astronomy

Sep. 01, 2015 Rise Set
Actual Time
Civil Twilight
Nautical Twilight
Astronomical Twilight
Moon
Length of Visible Light
Length of Day
Tomorrow will be .
, % of the Moon is Illuminated

Today's Extremes

State Highs State Lows

Community

WunderPhotos

Upload Photos

1,851,634 photos uploaded!

WunderBlogs® & News

Nearby

Air Quality

  Air Quality AQ Index Pollutant
Not available.

Snow Depth

Station Depth Elevation

Earthquake Activity

City Distance Mag. Time & Date
Minimum magnitude displayed is 2.5.

Coastal Water Temperatures

Place Temperature

Stations

Nearby Weather Stations

Station Location Temp. Windchill Dew Point Humidity Wind Precip. Elev Updated Type